This is the latest recevied weather packets stored in our database for station/object KO4DYK. If no packets are shown the sender has not sent any weather packets the latest 1 day(s).
| Time | Temp. | Humidity | Pressure | Rain* | Wind** | Luminosity | Snow |
|---|---|---|---|---|---|---|---|
| 1778001328 | 15.56° C | 99% | 1014.7 hPa | 3.05 mm | 2.68 m/s, 229° | 91 W/m² | - |
| 1778001025 | 15.56° C | 99% | 1014.4 hPa | 3.05 mm | 2.24 m/s, 87° | 53 W/m² | - |
| 1778000722 | 15.56° C | 99% | 1014.6 hPa | 3.05 mm | 1.79 m/s, 176° | 69 W/m² | - |
| 1778000418 | 15.56° C | 99% | 1014.9 hPa | 3.05 mm | 1.79 m/s, 321° | 96 W/m² | - |
| 1778000114 | 15.56° C | 99% | 1014.9 hPa | 6.1 mm | 3.13 m/s, 197° | 79 W/m² | - |
| 1777999809 | 15.56° C | 99% | 1014.3 hPa | 7.87 mm | 3.58 m/s, 206° | 100 W/m² | - |
| 1777999506 | 15.56° C | 99% | 1013.8 hPa | 7.87 mm | 2.68 m/s, 186° | 115 W/m² | - |
| 1777999204 | 15.56° C | 99% | 1014.2 hPa | 8.89 mm | 4.47 m/s, 171° | 54 W/m² | - |
| 1777998902 | 15° C | 99% | 1015.1 hPa | 8.89 mm | 1.34 m/s, 191° | 36 W/m² | - |
| 1777998602 | 15° C | 99% | 1015.6 hPa | 9.65 mm | 2.68 m/s, 216° | 28 W/m² | - |
| 1777998297 | 15° C | 99% | 1015.8 hPa | 10.67 mm | 2.24 m/s, 204° | 24 W/m² | - |
| 1777997993 | 15° C | 99% | 1015.8 hPa | 7.87 mm | 3.13 m/s, 208° | 17 W/m² | - |
| 1777997690 | 15° C | 99% | 1015.9 hPa | 8.89 mm | 3.13 m/s, 156° | 21 W/m² | - |
| 1777997388 | 15° C | 99% | 1015.8 hPa | 6.6 mm | 0.45 m/s, 172° | 19 W/m² | - |
| 1777997086 | 15° C | 99% | 1015.7 hPa | 4.83 mm | 0.45 m/s, 184° | 19 W/m² | - |
| 1777996782 | 15° C | 99% | 1015.4 hPa | 6.1 mm | 0.89 m/s, 166° | 21 W/m² | - |
| 1777996479 | 15° C | 99% | 1015.2 hPa | 7.11 mm | 2.24 m/s, 200° | 26 W/m² | - |
| 1777996175 | 15° C | 99% | 1015.1 hPa | 6.1 mm | 1.79 m/s, 182° | 28 W/m² | - |
| 1777995872 | 15° C | 99% | 1015.5 hPa | 4.83 mm | 0.45 m/s, 181° | 26 W/m² | - |
| 1777995567 | 15° C | 99% | 1015.6 hPa | 4.83 mm | 0.45 m/s, 179° | 24 W/m² | - |
| 1777995265 | 15° C | 99% | 1015.4 hPa | 4.83 mm | 0.45 m/s, 118° | 26 W/m² | - |
| 1777994962 | 15° C | 99% | 1015 hPa | 6.1 mm | 0 m/s | 33 W/m² | - |
| 1777994659 | 15° C | 99% | 1014.9 hPa | 6.1 mm | 0.45 m/s, 156° | 35 W/m² | - |
| 1777994359 | 15° C | 99% | 1014.8 hPa | 1.78 mm | 2.24 m/s, 197° | 34 W/m² | - |
| 1777994055 | 15° C | 99% | 1015.5 hPa | 1.27 mm | 1.34 m/s, 135° | 30 W/m² | - |
* Rain latest hour (hover to see other rain measurements)
** Current wind speed in m/s (hover to see current wind gust speed)